createdAt,value
2019-01-31T00:00:13.927Z,-0.40
2019-01-31T00:02:54.423Z,-0.50
2019-01-31T00:05:26.148Z,-0.60
2019-01-31T00:08:03.666Z,-0.60
2019-01-31T00:10:53.799Z,-0.60
2019-01-31T00:13:43.742Z,-0.70
2019-01-31T00:16:18.567Z,-0.70
2019-01-31T00:18:56.802Z,-0.70
2019-01-31T00:21:43.894Z,-0.80
2019-01-31T00:24:19.480Z,-0.80
2019-01-31T00:26:57.410Z,-0.70
2019-01-31T00:29:35.239Z,-0.80
2019-01-31T00:32:07.233Z,-0.70
2019-01-31T00:34:39.259Z,-0.80
2019-01-31T00:37:23.628Z,-0.80
2019-01-31T00:39:58.333Z,-0.80
2019-01-31T00:42:46.735Z,-0.80
2019-01-31T00:45:38.622Z,-0.80
2019-01-31T00:48:35.191Z,-0.80
2019-01-31T00:51:09.848Z,-0.80
2019-01-31T00:54:00.154Z,-0.80
2019-01-31T00:56:34.990Z,-0.90
2019-01-31T00:59:24.409Z,-0.90
2019-01-31T01:02:12.432Z,-0.90
2019-01-31T01:04:50.143Z,-1.00
2019-01-31T01:07:43.383Z,-1.10
2019-01-31T01:10:27.067Z,-1.20
2019-01-31T01:13:24.267Z,-1.20
2019-01-31T01:15:59.277Z,-1.20
2019-01-31T01:18:37.934Z,-1.30
2019-01-31T01:21:26.786Z,-1.20
2019-01-31T01:23:59.168Z,-1.20
2019-01-31T01:26:40.084Z,-1.20
2019-01-31T01:29:21.194Z,-1.20
2019-01-31T01:31:59.807Z,-1.20
2019-01-31T01:34:49.693Z,-1.20
2019-01-31T01:37:42.515Z,-1.20
2019-01-31T01:40:33.958Z,-1.30
2019-01-31T01:43:08.602Z,-1.40
2019-01-31T01:45:46.255Z,-1.40
2019-01-31T01:48:24.585Z,-1.50
2019-01-31T01:51:05.663Z,-1.50
2019-01-31T01:53:52.705Z,-1.60
2019-01-31T01:56:36.986Z,-1.60
2019-01-31T01:59:32.479Z,-1.70
2019-01-31T02:02:30.314Z,-1.70
2019-01-31T02:05:31.426Z,-1.70
2019-01-31T02:08:34.977Z,-1.70
2019-01-31T02:11:09.826Z,-1.80
2019-01-31T02:13:58.403Z,-1.80
2019-01-31T02:16:30.401Z,-1.80
2019-01-31T02:19:05.394Z,-1.80
2019-01-31T02:21:40.200Z,-1.80
2019-01-31T02:24:17.998Z,-1.80
2019-01-31T02:27:20.499Z,-1.80
2019-01-31T02:30:05.320Z,-1.80
2019-01-31T02:32:43.687Z,-1.80
2019-01-31T02:35:34.097Z,-1.80
2019-01-31T02:38:24.301Z,-1.70
2019-01-31T02:41:12.748Z,-1.70
2019-01-31T02:43:56.893Z,-1.70
2019-01-31T02:46:51.339Z,-1.70
2019-01-31T02:49:35.138Z,-1.70
2019-01-31T02:52:13.085Z,-1.80
2019-01-31T02:54:47.827Z,-1.80
2019-01-31T02:57:38.293Z,-1.80
2019-01-31T03:00:24.910Z,-1.80
2019-01-31T03:03:18.393Z,-1.80
2019-01-31T03:06:05.274Z,-1.80
2019-01-31T03:08:37.332Z,-1.80
2019-01-31T03:11:34.342Z,-1.80
2019-01-31T03:14:10.639Z,-1.80
2019-01-31T03:16:51.832Z,-1.80
2019-01-31T03:19:26.655Z,-1.80
2019-01-31T03:22:25.755Z,-1.80
2019-01-31T03:25:09.697Z,-1.90
2019-01-31T03:27:47.600Z,-1.90
2019-01-31T03:30:38.611Z,-1.90
2019-01-31T03:33:22.398Z,-1.90
2019-01-31T03:35:57.475Z,-2.00
2019-01-31T03:38:31.979Z,-2.00
2019-01-31T03:41:20.489Z,-2.00
2019-01-31T03:44:02.204Z,-2.10
2019-01-31T03:46:51.031Z,-2.10
2019-01-31T03:49:38.108Z,-2.20
2019-01-31T03:52:27.984Z,-2.20
2019-01-31T03:55:18.234Z,-2.20
2019-01-31T03:58:24.361Z,-2.30
2019-01-31T04:01:26.915Z,-2.30
2019-01-31T04:04:13.360Z,-2.30
2019-01-31T04:06:42.311Z,-2.30
2019-01-31T04:09:11.412Z,-2.30
2019-01-31T04:11:40.623Z,-2.30
2019-01-31T04:14:09.740Z,-2.30
2019-01-31T04:16:38.933Z,-2.30
2019-01-31T04:19:08.027Z,-2.30
2019-01-31T04:21:37.080Z,-2.20
2019-01-31T04:24:06.110Z,-2.20
2019-01-31T04:26:35.057Z,-2.20
2019-01-31T04:29:05.007Z,-2.30
2019-01-31T04:31:34.069Z,-2.30
2019-01-31T04:34:03.257Z,-2.30
2019-01-31T04:36:32.703Z,-2.30
2019-01-31T04:39:01.695Z,-2.30
2019-01-31T04:41:30.642Z,-2.30
2019-01-31T04:43:59.984Z,-2.30
2019-01-31T04:46:28.910Z,-2.30
2019-01-31T04:48:57.930Z,-2.30
2019-01-31T04:51:26.962Z,-2.30
2019-01-31T04:53:56.258Z,-2.30
2019-01-31T04:56:25.355Z,-2.30
2019-01-31T04:58:54.419Z,-2.40
2019-01-31T05:01:26.373Z,-2.30
2019-01-31T05:03:54.239Z,-2.40
2019-01-31T05:06:23.273Z,-2.40
2019-01-31T05:08:52.214Z,-2.30
2019-01-31T05:11:21.511Z,-2.40
2019-01-31T05:13:50.435Z,-2.40
2019-01-31T05:16:19.347Z,-2.40
2019-01-31T05:18:48.290Z,-2.40
2019-01-31T05:21:17.631Z,-2.40
2019-01-31T05:23:46.571Z,-2.40
2019-01-31T05:26:17.100Z,-2.40
2019-01-31T05:28:46.135Z,-2.40
2019-01-31T05:31:15.532Z,-2.40
2019-01-31T05:33:44.482Z,-2.40
2019-01-31T05:36:13.513Z,-2.40
2019-01-31T05:38:44.347Z,-2.30
2019-01-31T05:41:13.099Z,-2.30
2019-01-31T05:43:42.087Z,-2.40
2019-01-31T05:46:11.119Z,-2.40
2019-01-31T05:48:40.110Z,-2.40
2019-01-31T05:51:09.204Z,-2.40
2019-01-31T05:53:38.136Z,-2.30
2019-01-31T05:56:07.587Z,-2.30
2019-01-31T05:58:36.750Z,-2.40
2019-01-31T06:01:05.734Z,-2.30
2019-01-31T06:03:35.920Z,-2.30
2019-01-31T06:06:05.405Z,-2.30
2019-01-31T06:08:34.358Z,-2.20
2019-01-31T06:11:07.608Z,-2.20
2019-01-31T06:13:34.180Z,-2.20
2019-01-31T06:16:03.216Z,-2.20
2019-01-31T06:18:32.126Z,-2.20
2019-01-31T06:21:01.159Z,-2.10
2019-01-31T06:23:30.055Z,-2.10
2019-01-31T06:25:59.025Z,-2.10
2019-01-31T06:28:28.173Z,-2.10
2019-01-31T06:30:57.124Z,-2.00
2019-01-31T06:33:28.316Z,-2.00
2019-01-31T06:35:56.887Z,-2.00
2019-01-31T06:38:27.633Z,-2.00
2019-01-31T06:40:56.572Z,-2.00
2019-01-31T06:43:25.602Z,-2.00
2019-01-31T06:45:56.352Z,-2.00
2019-01-31T06:48:26.002Z,-1.90
2019-01-31T06:50:55.043Z,-1.90
2019-01-31T06:53:24.025Z,-1.90
2019-01-31T06:55:52.976Z,-1.90
2019-01-31T06:58:22.009Z,-1.90
2019-01-31T07:00:50.901Z,-1.80
2019-01-31T07:03:20.175Z,-1.70
2019-01-31T07:05:49.494Z,-1.70
2019-01-31T07:08:18.971Z,-1.60
2019-01-31T07:10:48.091Z,-1.60
2019-01-31T07:13:17.149Z,-1.60
2019-01-31T07:15:46.135Z,-1.50
2019-01-31T07:18:15.533Z,-1.50
2019-01-31T07:20:44.533Z,-1.40
2019-01-31T07:23:13.560Z,-1.30
2019-01-31T07:25:43.064Z,-1.30
2019-01-31T07:28:12.446Z,-1.30
2019-01-31T07:30:41.515Z,-1.40
2019-01-31T07:33:10.521Z,-1.30
2019-01-31T07:35:39.644Z,-1.30
2019-01-31T07:38:08.699Z,-1.20
2019-01-31T07:40:37.835Z,-1.20
2019-01-31T07:43:06.983Z,-1.20
2019-01-31T07:45:36.124Z,-1.10
2019-01-31T07:48:05.728Z,-1.10
2019-01-31T07:50:34.887Z,-1.10
2019-01-31T07:53:04.017Z,-1.10
2019-01-31T07:55:33.014Z,-1.10
2019-01-31T07:58:02.009Z,-1.00
2019-01-31T08:00:31.091Z,-1.10
2019-01-31T08:03:00.599Z,-1.00
2019-01-31T08:05:29.691Z,-1.00
2019-01-31T08:07:58.976Z,-0.90
2019-01-31T08:10:36.994Z,-0.90
2019-01-31T08:13:06.352Z,-0.90
2019-01-31T08:15:35.777Z,-0.80
2019-01-31T08:18:04.994Z,-0.80
2019-01-31T08:20:33.948Z,-0.70
2019-01-31T08:23:03.078Z,-0.70
2019-01-31T08:25:31.863Z,-0.60
2019-01-31T08:28:00.974Z,-0.50
2019-01-31T08:30:37.782Z,-0.50
2019-01-31T08:33:05.801Z,-0.40
2019-01-31T08:35:34.764Z,-0.40
2019-01-31T08:38:03.740Z,-0.40
2019-01-31T08:40:32.571Z,-0.20
2019-01-31T08:43:01.213Z,-0.10
2019-01-31T08:45:30.872Z,-0.10
2019-01-31T08:47:59.602Z,-0.10
2019-01-31T08:50:30.079Z,0.10
2019-01-31T08:52:59.267Z,0.10
2019-01-31T08:55:28.331Z,0.10
2019-01-31T08:57:57.151Z,0.40
2019-01-31T09:00:28.354Z,0.40
2019-01-31T09:02:57.188Z,0.50
2019-01-31T09:05:26.234Z,0.70
2019-01-31T09:07:55.522Z,0.70
2019-01-31T09:10:29.989Z,0.80
2019-01-31T09:13:00.015Z,0.90
2019-01-31T09:15:28.853Z,1.00
2019-01-31T09:17:57.534Z,1.00
2019-01-31T09:20:41.827Z,1.00
2019-01-31T09:23:13.950Z,1.10
2019-01-31T09:25:51.847Z,1.00
2019-01-31T09:28:47.484Z,1.20
2019-01-31T09:31:25.001Z,1.50
2019-01-31T09:34:08.797Z,1.50
2019-01-31T09:37:01.867Z,1.90
2019-01-31T09:39:39.465Z,1.80
2019-01-31T09:42:11.197Z,2.00
2019-01-31T09:44:55.184Z,2.40
2019-01-31T09:47:39.087Z,2.80
2019-01-31T09:50:19.791Z,2.50
2019-01-31T09:53:09.428Z,2.50
2019-01-31T09:55:57.711Z,2.60
2019-01-31T09:58:52.055Z,3.20
2019-01-31T10:01:45.095Z,2.90
2019-01-31T10:04:22.612Z,2.70
2019-01-31T10:07:12.683Z,2.60
2019-01-31T10:10:05.536Z,2.50
2019-01-31T10:12:55.242Z,2.70
2019-01-31T10:15:42.126Z,3.10
2019-01-31T10:18:19.760Z,3.10
2019-01-31T10:20:54.548Z,2.90
2019-01-31T10:23:43.005Z,2.70
2019-01-31T10:26:17.517Z,2.70
2019-01-31T10:28:55.964Z,2.40
2019-01-31T10:31:42.674Z,2.50
2019-01-31T10:34:23.020Z,2.50
2019-01-31T10:37:00.442Z,2.40
2019-01-31T10:39:53.141Z,2.40
2019-01-31T10:42:49.405Z,2.60
2019-01-31T10:45:42.101Z,2.40
2019-01-31T10:48:30.797Z,2.50
2019-01-31T10:51:19.244Z,2.60
2019-01-31T10:53:53.840Z,2.40
2019-01-31T10:56:40.473Z,2.70
2019-01-31T10:59:12.709Z,2.90
2019-01-31T11:02:01.246Z,3.00
2019-01-31T11:04:44.742Z,3.20
2019-01-31T11:07:22.619Z,3.00
2019-01-31T11:10:16.839Z,2.90
2019-01-31T11:13:17.400Z,3.80
2019-01-31T11:16:07.513Z,3.80
2019-01-31T11:18:48.088Z,3.70
2019-01-31T11:21:19.913Z,3.90
2019-01-31T11:24:09.925Z,4.10
2019-01-31T11:27:07.126Z,3.90
2019-01-31T11:30:00.030Z,4.30
2019-01-31T11:32:34.551Z,4.00
2019-01-31T11:35:18.019Z,4.30
2019-01-31T11:38:01.571Z,4.60
2019-01-31T11:40:36.297Z,4.30
2019-01-31T11:43:11.846Z,4.00
2019-01-31T11:45:47.720Z,4.30
2019-01-31T11:48:31.737Z,4.50
2019-01-31T11:51:12.242Z,4.30
2019-01-31T11:54:14.514Z,4.20
2019-01-31T11:57:05.880Z,5.00
2019-01-31T11:59:34.716Z,5.00
2019-01-31T12:02:03.518Z,4.70
2019-01-31T12:04:32.151Z,4.50
2019-01-31T12:07:00.816Z,4.50
2019-01-31T12:09:29.617Z,4.50
2019-01-31T12:11:58.446Z,3.80
2019-01-31T12:14:27.646Z,3.50
2019-01-31T12:16:56.289Z,3.40
2019-01-31T12:19:25.173Z,3.50
2019-01-31T12:21:53.961Z,3.90
2019-01-31T12:24:22.685Z,3.40
2019-01-31T12:26:51.423Z,3.20
2019-01-31T12:29:20.434Z,2.90
2019-01-31T12:31:49.540Z,2.80
2019-01-31T12:34:18.707Z,2.90
2019-01-31T12:36:47.643Z,2.70
2019-01-31T12:39:16.306Z,2.90
2019-01-31T12:41:45.216Z,2.60
2019-01-31T12:44:13.953Z,2.60
2019-01-31T12:46:43.097Z,2.60
2019-01-31T12:49:12.086Z,2.80
2019-01-31T12:51:40.714Z,2.70
2019-01-31T12:54:09.968Z,2.70
2019-01-31T12:56:40.470Z,3.00
2019-01-31T12:59:09.186Z,3.00
2019-01-31T13:01:38.023Z,3.10
2019-01-31T13:04:06.855Z,3.00
2019-01-31T13:06:35.599Z,3.10
2019-01-31T13:09:07.561Z,3.10
2019-01-31T13:11:36.492Z,3.20
2019-01-31T13:14:05.347Z,3.20
2019-01-31T13:16:34.337Z,3.20
2019-01-31T13:19:03.455Z,3.30
2019-01-31T13:21:32.252Z,3.30
2019-01-31T13:24:00.960Z,3.30
2019-01-31T13:26:29.746Z,3.50
2019-01-31T13:28:58.684Z,3.50
2019-01-31T13:31:27.448Z,3.40
2019-01-31T13:33:56.254Z,3.40
2019-01-31T13:36:24.972Z,3.50
2019-01-31T13:38:53.745Z,3.50
2019-01-31T13:41:22.503Z,3.30
2019-01-31T13:43:57.805Z,3.20
2019-01-31T13:46:21.945Z,3.50
2019-01-31T13:48:50.806Z,3.30
2019-01-31T13:51:19.534Z,3.30
2019-01-31T13:53:48.219Z,3.40
2019-01-31T13:56:18.731Z,3.30
2019-01-31T13:58:47.432Z,3.40
2019-01-31T14:01:16.029Z,3.20
2019-01-31T14:03:44.904Z,3.20
2019-01-31T14:06:13.688Z,3.40
2019-01-31T14:08:42.407Z,3.30
2019-01-31T14:11:11.222Z,3.60
2019-01-31T14:13:39.932Z,3.70
2019-01-31T14:16:08.792Z,3.50
2019-01-31T14:18:37.521Z,3.80
2019-01-31T14:21:06.221Z,3.70
2019-01-31T14:23:35.389Z,4.10
2019-01-31T14:26:04.800Z,4.20
2019-01-31T14:28:33.391Z,4.20
2019-01-31T14:31:02.578Z,3.80
2019-01-31T14:33:31.429Z,3.60
2019-01-31T14:36:00.418Z,3.80
2019-01-31T14:38:29.213Z,3.70
2019-01-31T14:40:58.306Z,3.50
2019-01-31T14:43:28.110Z,3.40
2019-01-31T14:45:56.936Z,3.60
2019-01-31T14:48:25.645Z,3.30
2019-01-31T14:50:54.327Z,3.20
2019-01-31T14:53:23.194Z,3.10
2019-01-31T14:55:51.984Z,3.00
2019-01-31T14:58:20.727Z,3.10
2019-01-31T15:00:49.515Z,3.00
2019-01-31T15:03:18.299Z,3.10
2019-01-31T15:05:47.134Z,3.10
2019-01-31T15:08:15.769Z,2.90
2019-01-31T15:10:45.899Z,2.80
2019-01-31T15:13:14.822Z,2.70
2019-01-31T15:15:43.462Z,2.40
2019-01-31T15:18:12.348Z,2.30
2019-01-31T15:20:42.910Z,2.30
2019-01-31T15:23:11.766Z,2.30
2019-01-31T15:25:40.883Z,2.20
2019-01-31T15:28:09.751Z,2.50
2019-01-31T15:30:38.942Z,2.70
2019-01-31T15:33:10.519Z,2.50
2019-01-31T15:35:39.959Z,2.50
2019-01-31T15:38:08.683Z,2.30
2019-01-31T15:40:40.482Z,2.30
2019-01-31T15:43:09.328Z,2.20
2019-01-31T15:45:38.118Z,2.00
2019-01-31T15:48:10.625Z,1.80
2019-01-31T15:50:38.629Z,1.60
2019-01-31T15:53:07.901Z,1.50
2019-01-31T15:55:36.684Z,1.40
2019-01-31T15:58:06.120Z,1.30
2019-01-31T16:00:42.040Z,1.10
2019-01-31T16:03:16.066Z,1.00
2019-01-31T16:05:44.998Z,1.00
2019-01-31T16:08:14.545Z,0.90
2019-01-31T16:10:43.566Z,0.80
2019-01-31T16:13:12.428Z,0.60
2019-01-31T16:15:42.151Z,0.50
2019-01-31T16:18:11.814Z,0.60
2019-01-31T16:20:40.897Z,0.50
2019-01-31T16:23:10.133Z,0.50
2019-01-31T16:25:38.882Z,0.40
2019-01-31T16:28:07.817Z,0.40
2019-01-31T16:30:36.870Z,0.30
2019-01-31T16:33:06.424Z,0.30
2019-01-31T16:35:35.867Z,0.30
2019-01-31T16:38:05.075Z,0.20
2019-01-31T16:40:33.894Z,0.20
2019-01-31T16:43:03.272Z,0.10
2019-01-31T16:45:32.683Z,0.10
2019-01-31T16:48:01.731Z,0.10
2019-01-31T16:50:30.981Z,0.10
2019-01-31T16:52:59.738Z,0.10
2019-01-31T16:55:30.015Z,0.00
2019-01-31T16:57:59.353Z,0.00
2019-01-31T17:00:32.783Z,-0.10
2019-01-31T17:03:01.877Z,-0.10
2019-01-31T17:05:32.581Z,-0.10
2019-01-31T17:08:01.704Z,-0.20
2019-01-31T17:10:30.768Z,-0.20
2019-01-31T17:12:59.855Z,-0.20
2019-01-31T17:15:28.847Z,-0.20
2019-01-31T17:17:57.936Z,-0.20
2019-01-31T17:20:30.449Z,-0.20
2019-01-31T17:22:59.103Z,-0.20
2019-01-31T17:25:28.185Z,-0.30
2019-01-31T17:27:56.948Z,-0.30
2019-01-31T17:30:27.438Z,-0.30
2019-01-31T17:32:56.557Z,-0.30
2019-01-31T17:35:25.322Z,-0.40
2019-01-31T17:37:54.281Z,-0.40
2019-01-31T17:40:28.788Z,-0.30
2019-01-31T17:42:57.475Z,-0.30
2019-01-31T17:45:30.956Z,-0.30
2019-01-31T17:48:00.384Z,-0.40
2019-01-31T17:50:29.296Z,-0.50
2019-01-31T17:52:58.065Z,-0.60
2019-01-31T17:55:28.090Z,-0.70
2019-01-31T17:57:57.161Z,-0.60
2019-01-31T18:00:39.014Z,-0.60
2019-01-31T18:03:08.666Z,-0.60
2019-01-31T18:05:37.984Z,-0.60
2019-01-31T18:08:09.348Z,-0.60
2019-01-31T18:10:37.987Z,-0.60
2019-01-31T18:13:07.021Z,-0.60
2019-01-31T18:15:42.001Z,-0.60
2019-01-31T18:18:06.963Z,-0.60
2019-01-31T18:20:36.040Z,-0.60
2019-01-31T18:23:04.894Z,-0.70
2019-01-31T18:25:33.912Z,-0.70
2019-01-31T18:28:03.317Z,-0.80
2019-01-31T18:30:35.496Z,-0.80
2019-01-31T18:33:04.790Z,-0.90
2019-01-31T18:35:33.782Z,-0.90
2019-01-31T18:38:02.568Z,-1.00
2019-01-31T18:40:33.365Z,-1.20
2019-01-31T18:43:02.802Z,-1.00
2019-01-31T18:45:35.889Z,-1.00
2019-01-31T18:48:06.350Z,-1.00
2019-01-31T18:50:37.723Z,-1.00
2019-01-31T18:53:07.025Z,-0.90
2019-01-31T18:55:36.167Z,-0.80
2019-01-31T18:58:06.039Z,-0.80
2019-01-31T19:00:40.780Z,-0.80
2019-01-31T19:03:09.949Z,-0.80
2019-01-31T19:05:39.043Z,-0.80
2019-01-31T19:08:09.106Z,-0.80
2019-01-31T19:10:43.194Z,-0.80
2019-01-31T19:13:09.336Z,-0.80
2019-01-31T19:15:38.387Z,-0.80
2019-01-31T19:18:07.627Z,-0.90
2019-01-31T19:20:36.963Z,-0.90
2019-01-31T19:23:08.067Z,-0.80
2019-01-31T19:25:37.263Z,-0.90
2019-01-31T19:28:06.884Z,-0.80
2019-01-31T19:30:38.510Z,-0.90
2019-01-31T19:33:08.375Z,-0.90
2019-01-31T19:35:38.227Z,-0.90
2019-01-31T19:38:07.970Z,-0.90
2019-01-31T19:40:40.070Z,-0.90
2019-01-31T19:43:09.402Z,-1.00
2019-01-31T19:45:43.403Z,-1.00
2019-01-31T19:48:12.787Z,-1.00
2019-01-31T19:50:43.633Z,-1.00
2019-01-31T19:53:12.961Z,-0.90
2019-01-31T19:55:42.325Z,-0.90
2019-01-31T19:58:11.822Z,-0.90
2019-01-31T20:00:42.641Z,-0.90
2019-01-31T20:03:12.205Z,-1.00
2019-01-31T20:05:41.559Z,-1.00
2019-01-31T20:08:11.068Z,-1.00
2019-01-31T20:10:40.225Z,-1.00
2019-01-31T20:13:09.401Z,-1.00
2019-01-31T20:15:38.494Z,-1.00
2019-01-31T20:18:07.796Z,-1.00
2019-01-31T20:20:36.952Z,-1.00
2019-01-31T20:23:06.752Z,-1.00
2019-01-31T20:25:35.892Z,-1.10
2019-01-31T20:28:05.159Z,-1.00
2019-01-31T20:30:34.450Z,-1.10
2019-01-31T20:33:03.888Z,-1.00
2019-01-31T20:35:33.510Z,-1.00
2019-01-31T20:38:02.699Z,-1.00
2019-01-31T20:40:34.232Z,-1.10
2019-01-31T20:43:04.132Z,-1.10
2019-01-31T20:45:33.184Z,-1.00
2019-01-31T20:48:02.344Z,-1.00
2019-01-31T20:50:33.662Z,-1.00
2019-01-31T20:53:03.076Z,-1.00
2019-01-31T20:55:32.495Z,-1.00
2019-01-31T20:58:01.785Z,-1.00
2019-01-31T21:00:36.149Z,-1.00
2019-01-31T21:03:07.200Z,-0.90
2019-01-31T21:05:36.548Z,-1.00
2019-01-31T21:08:08.414Z,-0.90
2019-01-31T21:10:37.605Z,-0.90
2019-01-31T21:13:06.979Z,-0.90
2019-01-31T21:15:36.108Z,-0.90
2019-01-31T21:18:06.523Z,-0.90
2019-01-31T21:20:35.525Z,-0.90
2019-01-31T21:23:05.555Z,-0.90
2019-01-31T21:25:35.679Z,-0.80
2019-01-31T21:28:04.861Z,-0.80
2019-01-31T21:30:36.396Z,-0.80
2019-01-31T21:33:05.737Z,-0.80
2019-01-31T21:35:36.761Z,-0.80
2019-01-31T21:38:05.937Z,-0.70
2019-01-31T21:40:35.597Z,-0.70
2019-01-31T21:43:05.871Z,-0.70
2019-01-31T21:45:35.156Z,-0.70
2019-01-31T21:48:05.390Z,-0.70
2019-01-31T21:50:34.848Z,-0.60
2019-01-31T21:53:04.171Z,-0.60
2019-01-31T21:55:33.144Z,-0.50
2019-01-31T21:58:02.370Z,-0.50
2019-01-31T22:00:33.186Z,-0.50
2019-01-31T22:03:02.506Z,-0.50
2019-01-31T22:05:31.496Z,-0.50
2019-01-31T22:08:00.694Z,-0.40
2019-01-31T22:10:31.148Z,-0.40
2019-01-31T22:13:02.755Z,-0.40
2019-01-31T22:15:35.453Z,-0.40
2019-01-31T22:18:05.750Z,-0.40
2019-01-31T22:20:34.765Z,-0.40
2019-01-31T22:23:05.816Z,-0.40
2019-01-31T22:25:35.102Z,-0.30
2019-01-31T22:28:04.710Z,-0.30
2019-01-31T22:30:36.135Z,-0.30
2019-01-31T22:33:06.421Z,-0.30
2019-01-31T22:35:35.755Z,-0.20
2019-01-31T22:38:05.452Z,-0.10
2019-01-31T22:40:35.013Z,-0.10
2019-01-31T22:43:04.704Z,-0.10
2019-01-31T22:45:33.389Z,0.00
2019-01-31T22:48:02.348Z,0.10
2019-01-31T22:50:31.882Z,0.00
2019-01-31T22:53:01.864Z,0.10
2019-01-31T22:55:31.310Z,0.10
2019-01-31T22:58:01.887Z,0.10
2019-01-31T23:01:04.409Z,0.10
2019-01-31T23:03:33.509Z,0.00
2019-01-31T23:06:02.806Z,0.10
2019-01-31T23:08:31.761Z,0.10
2019-01-31T23:11:00.828Z,0.10
2019-01-31T23:13:30.599Z,0.10
2019-01-31T23:15:59.753Z,0.20
2019-01-31T23:18:29.117Z,0.20
2019-01-31T23:21:00.341Z,0.20
2019-01-31T23:23:29.534Z,0.20
2019-01-31T23:25:58.793Z,0.30
2019-01-31T23:28:28.134Z,0.30
2019-01-31T23:30:57.022Z,0.30
2019-01-31T23:33:26.427Z,0.30
2019-01-31T23:35:55.511Z,0.30
2019-01-31T23:38:24.670Z,0.30
2019-01-31T23:40:53.503Z,0.30
2019-01-31T23:43:22.494Z,0.40
2019-01-31T23:45:51.692Z,0.40
2019-01-31T23:48:20.645Z,0.40
2019-01-31T23:50:49.471Z,0.50
2019-01-31T23:53:18.207Z,0.50
2019-01-31T23:55:46.876Z,0.50
2019-01-31T23:58:15.832Z,0.50
